createdAt,value
2023-03-29T00:03:59.268Z,75.15
2023-03-29T00:09:06.242Z,74.51
2023-03-29T00:14:08.982Z,74.50
2023-03-29T00:19:11.343Z,74.49
2023-03-29T00:24:13.737Z,74.66
2023-03-29T00:29:16.969Z,74.71
2023-03-29T00:34:19.929Z,74.36
2023-03-29T00:39:22.369Z,74.66
2023-03-29T00:44:53.006Z,74.24
2023-03-29T00:49:58.013Z,74.63
2023-03-29T00:55:06.257Z,74.77
2023-03-29T01:00:12.461Z,74.70
2023-03-29T01:05:20.389Z,75.02
2023-03-29T01:10:29.870Z,75.58
2023-03-29T01:15:33.717Z,75.68
2023-03-29T01:21:10.674Z,76.09
2023-03-29T01:26:19.164Z,75.76
2023-03-29T01:31:31.804Z,76.27
2023-03-29T01:37:00.621Z,76.19
2023-03-29T01:42:12.063Z,76.25
2023-03-29T01:47:36.864Z,76.77
2023-03-29T01:52:50.959Z,76.79
2023-03-29T01:57:56.658Z,77.05
2023-03-29T02:03:03.477Z,76.66
2023-03-29T02:08:10.181Z,77.26
2023-03-29T02:13:12.797Z,77.22
2023-03-29T02:18:19.032Z,77.70
2023-03-29T02:23:27.763Z,77.28
2023-03-29T02:28:32.009Z,77.93
2023-03-29T02:34:00.872Z,78.08
2023-03-29T02:39:06.329Z,78.31
2023-03-29T02:44:14.398Z,78.27
2023-03-29T02:49:17.152Z,78.14
2023-03-29T02:54:22.400Z,78.34
2023-03-29T02:59:24.988Z,78.11
2023-03-29T03:04:27.545Z,78.00
2023-03-29T03:09:29.956Z,77.41
2023-03-29T03:14:32.962Z,77.56
2023-03-29T03:19:36.660Z,76.31
2023-03-29T03:24:39.610Z,76.51
2023-03-29T03:29:42.456Z,76.05
2023-03-29T03:35:06.239Z,75.52
2023-03-29T03:40:09.565Z,74.75
2023-03-29T03:45:13.385Z,74.57
2023-03-29T03:50:27.718Z,74.68
2023-03-29T03:55:32.641Z,74.41
2023-03-29T04:00:46.451Z,73.59
2023-03-29T04:06:07.789Z,72.80
2023-03-29T04:11:33.866Z,71.13
2023-03-29T04:16:37.113Z,70.30
2023-03-29T04:21:58.305Z,68.93
2023-03-29T04:27:01.885Z,69.01
2023-03-29T04:32:04.960Z,68.97
2023-03-29T04:37:30.083Z,68.87
2023-03-29T04:42:34.583Z,68.32
2023-03-29T04:47:40.037Z,67.84
2023-03-29T04:52:51.108Z,67.85
2023-03-29T04:57:54.329Z,68.24
2023-03-29T05:03:04.748Z,67.57
2023-03-29T05:08:10.940Z,67.48
2023-03-29T05:13:29.012Z,68.01
2023-03-29T05:18:32.115Z,67.29
2023-03-29T05:23:34.737Z,66.31
2023-03-29T05:28:42.885Z,66.61
2023-03-29T05:33:45.824Z,65.57
2023-03-29T05:38:48.379Z,64.43
2023-03-29T05:43:51.021Z,64.57
2023-03-29T05:48:55.456Z,63.92
2023-03-29T05:54:08.061Z,63.23
2023-03-29T05:59:10.631Z,62.78
2023-03-29T06:04:14.860Z,61.63
2023-03-29T06:09:26.904Z,61.03
2023-03-29T06:14:38.949Z,60.17
2023-03-29T06:20:02.412Z,58.98
2023-03-29T06:25:11.117Z,59.32
2023-03-29T06:30:16.790Z,58.61
2023-03-29T06:35:23.779Z,57.82
2023-03-29T06:40:32.464Z,55.91
2023-03-29T06:45:37.616Z,55.16
2023-03-29T06:50:44.980Z,55.40
2023-03-29T06:55:52.885Z,54.17
2023-03-29T07:01:15.623Z,55.16
2023-03-29T07:06:24.401Z,55.36
2023-03-29T07:11:27.396Z,55.12
2023-03-29T07:16:32.945Z,54.38
2023-03-29T07:22:04.674Z,54.17
2023-03-29T07:27:21.067Z,53.50
2023-03-29T07:32:25.000Z,52.29
2023-03-29T07:37:47.889Z,51.48
2023-03-29T07:42:55.625Z,51.09
2023-03-29T07:48:00.143Z,50.87
2023-03-29T07:53:10.661Z,49.62
2023-03-29T07:58:14.956Z,50.14
2023-03-29T08:03:18.314Z,50.30
2023-03-29T08:08:20.892Z,50.50
2023-03-29T08:13:32.991Z,50.66
2023-03-29T08:18:54.042Z,50.52
2023-03-29T08:23:59.450Z,49.89
2023-03-29T08:29:23.757Z,49.98
2023-03-29T08:34:26.516Z,49.87
2023-03-29T08:39:58.366Z,50.32
2023-03-29T08:45:21.443Z,51.02
2023-03-29T08:50:48.831Z,50.94
2023-03-29T08:55:56.398Z,50.32
2023-03-29T09:01:35.714Z,50.64
2023-03-29T09:06:42.370Z,50.65
2023-03-29T09:12:48.692Z,51.00
2023-03-29T09:17:57.230Z,50.70
2023-03-29T09:23:23.757Z,51.08
2023-03-29T09:29:52.151Z,51.26
2023-03-29T09:35:14.541Z,51.05
2023-03-29T09:40:40.147Z,51.47
2023-03-29T09:45:53.819Z,50.98
2023-03-29T09:50:57.527Z,50.36
2023-03-29T09:56:02.374Z,48.66
2023-03-29T10:01:22.354Z,47.89
2023-03-29T10:06:27.141Z,48.09
2023-03-29T10:11:37.248Z,48.22
2023-03-29T10:16:42.700Z,47.24
2023-03-29T10:21:49.349Z,46.73
2023-03-29T10:26:56.118Z,46.88
2023-03-29T10:31:58.820Z,48.04
2023-03-29T10:37:02.470Z,48.69
2023-03-29T10:42:05.320Z,49.11
2023-03-29T10:47:16.531Z,49.22
2023-03-29T10:52:19.219Z,50.56
2023-03-29T10:57:41.033Z,50.60
2023-03-29T11:02:49.672Z,49.90
2023-03-29T11:08:01.952Z,49.79
2023-03-29T11:13:21.610Z,49.61
2023-03-29T11:18:39.058Z,49.19
2023-03-29T11:23:57.175Z,49.50
2023-03-29T11:29:29.666Z,49.12
2023-03-29T11:35:27.414Z,49.17
2023-03-29T11:40:37.693Z,49.01
2023-03-29T11:45:46.468Z,49.06
2023-03-29T11:51:03.588Z,48.92
2023-03-29T11:56:16.895Z,49.20
2023-03-29T12:01:32.067Z,48.81
2023-03-29T12:06:48.347Z,48.40
2023-03-29T12:12:03.745Z,48.12
2023-03-29T12:17:13.160Z,46.63
2023-03-29T12:22:15.770Z,46.09
2023-03-29T12:28:12.552Z,46.40
2023-03-29T12:33:51.166Z,45.49
2023-03-29T12:39:20.164Z,45.79
2023-03-29T12:44:49.398Z,44.61
2023-03-29T12:50:00.605Z,44.95
2023-03-29T12:55:18.090Z,45.02
2023-03-29T13:00:28.028Z,45.83
2023-03-29T13:05:39.644Z,46.54
2023-03-29T13:10:43.107Z,46.94
2023-03-29T13:15:46.426Z,47.29
2023-03-29T13:20:57.723Z,47.84
2023-03-29T13:26:28.320Z,48.25
2023-03-29T13:31:44.490Z,48.26
2023-03-29T13:37:08.739Z,48.46
2023-03-29T13:42:36.617Z,48.81
2023-03-29T13:47:54.962Z,48.70
2023-03-29T13:53:21.265Z,48.87
2023-03-29T13:58:38.325Z,49.32
2023-03-29T14:03:47.398Z,49.25
2023-03-29T14:08:52.009Z,49.25
2023-03-29T14:13:59.724Z,49.37
2023-03-29T14:19:13.772Z,49.39
2023-03-29T14:24:21.831Z,49.80
2023-03-29T14:29:30.528Z,50.06
2023-03-29T14:34:32.986Z,50.79
2023-03-29T14:39:36.087Z,51.33
2023-03-29T14:44:38.853Z,51.22
2023-03-29T14:49:41.298Z,51.88
2023-03-29T14:54:47.960Z,52.89
2023-03-29T15:00:02.707Z,52.90
2023-03-29T15:05:07.959Z,53.23
2023-03-29T15:10:17.686Z,53.84
2023-03-29T15:15:21.151Z,54.22
2023-03-29T15:20:29.353Z,54.98
2023-03-29T15:25:46.500Z,55.32
2023-03-29T15:31:00.728Z,55.73
2023-03-29T15:36:12.405Z,56.09
2023-03-29T15:41:15.717Z,56.33
2023-03-29T15:46:18.115Z,56.06
2023-03-29T15:51:20.495Z,56.58
2023-03-29T15:56:23.196Z,56.71
2023-03-29T16:01:35.953Z,56.87
2023-03-29T16:06:38.987Z,56.78
2023-03-29T16:11:43.330Z,57.26
2023-03-29T16:16:45.574Z,57.89
2023-03-29T16:21:48.682Z,57.94
2023-03-29T16:26:54.757Z,58.22
2023-03-29T16:31:59.299Z,58.68
2023-03-29T16:37:01.875Z,59.00
2023-03-29T16:42:04.790Z,59.03
2023-03-29T16:47:07.246Z,59.22
2023-03-29T16:52:09.608Z,59.43
2023-03-29T16:57:12.508Z,59.07
2023-03-29T17:02:14.925Z,59.37
2023-03-29T17:07:17.449Z,59.01
2023-03-29T17:12:21.458Z,59.49
2023-03-29T17:17:34.985Z,59.46
2023-03-29T17:22:40.151Z,59.85
2023-03-29T17:27:42.670Z,59.98
2023-03-29T17:32:47.802Z,60.46
2023-03-29T17:37:50.261Z,61.03
2023-03-29T17:42:52.986Z,61.10
2023-03-29T17:47:55.858Z,61.25
2023-03-29T17:52:58.283Z,61.12
2023-03-29T17:58:01.063Z,61.40
2023-03-29T18:03:04.317Z,61.29
2023-03-29T18:08:06.923Z,61.40
2023-03-29T18:13:14.077Z,61.31
2023-03-29T18:18:16.398Z,61.89
2023-03-29T18:23:18.905Z,61.87
2023-03-29T18:28:21.749Z,61.42
2023-03-29T18:33:24.948Z,61.38
2023-03-29T18:38:27.400Z,61.59
2023-03-29T18:43:31.228Z,61.95
2023-03-29T18:48:39.157Z,61.61
2023-03-29T18:53:43.269Z,62.02
2023-03-29T18:58:46.611Z,62.10
2023-03-29T19:03:49.362Z,62.59
2023-03-29T19:08:54.237Z,62.14
2023-03-29T19:13:56.907Z,62.57
2023-03-29T19:19:00.359Z,62.89
2023-03-29T19:24:05.306Z,62.76
2023-03-29T19:29:07.850Z,63.13
2023-03-29T19:34:11.317Z,63.08
2023-03-29T19:39:13.937Z,63.19
2023-03-29T19:44:16.324Z,63.60
2023-03-29T19:49:19.105Z,63.75
2023-03-29T19:54:22.092Z,63.73
2023-03-29T19:59:25.518Z,64.07
2023-03-29T20:04:29.010Z,63.85
2023-03-29T20:09:35.512Z,63.90
2023-03-29T20:14:40.360Z,63.89
2023-03-29T20:19:44.388Z,63.50
2023-03-29T20:24:46.780Z,63.63
2023-03-29T20:29:49.271Z,64.09
2023-03-29T20:34:51.706Z,63.66
2023-03-29T20:39:56.945Z,63.94
2023-03-29T20:45:00.435Z,63.64
2023-03-29T20:50:04.368Z,63.98
2023-03-29T20:55:06.953Z,63.56
2023-03-29T21:00:12.467Z,63.85
2023-03-29T21:05:15.972Z,63.64
2023-03-29T21:10:18.506Z,63.81
2023-03-29T21:15:21.584Z,63.94
2023-03-29T21:20:24.522Z,64.01
2023-03-29T21:25:26.994Z,64.46
2023-03-29T21:30:31.863Z,64.34
2023-03-29T21:35:35.960Z,64.26
2023-03-29T21:40:39.214Z,64.36
2023-03-29T21:45:41.614Z,64.52
2023-03-29T21:50:44.683Z,65.04
2023-03-29T21:55:50.921Z,65.08
2023-03-29T22:00:56.000Z,65.28
2023-03-29T22:06:01.660Z,65.00
2023-03-29T22:11:08.402Z,65.23
2023-03-29T22:16:16.958Z,64.71
2023-03-29T22:21:25.196Z,65.65
2023-03-29T22:26:30.817Z,65.26
2023-03-29T22:31:33.261Z,66.28
2023-03-29T22:36:36.361Z,65.79
2023-03-29T22:41:38.761Z,66.60
2023-03-29T22:46:41.532Z,67.22
2023-03-29T22:51:43.966Z,67.76
2023-03-29T22:56:47.033Z,67.37
2023-03-29T23:01:50.291Z,67.64
2023-03-29T23:06:53.526Z,68.52
2023-03-29T23:11:55.977Z,68.48
2023-03-29T23:16:58.501Z,68.71
2023-03-29T23:22:01.225Z,69.26
2023-03-29T23:27:05.092Z,68.90
2023-03-29T23:32:07.600Z,68.75
2023-03-29T23:37:09.916Z,68.47
2023-03-29T23:42:12.438Z,69.39
2023-03-29T23:47:14.791Z,68.93
2023-03-29T23:52:17.726Z,69.93
2023-03-29T23:57:21.596Z,69.25
